Saltburn-by-the-Sea, United Kingdom
Current Conditions -  °F | °C
As of 11:50 AM on Thursday 30 Oct 2014 (Local Time) from EGNV Reporting Station
Haze Haze  
Wind Chill: 13°   Ceiling: 900
Heat Index: 13°   Visibility: 1.8mi
Dew Point: 13°   Wind: 13mph
Humidity: 100%   Direction: 180°S
Pressure: 29.97"   Gusts: NA
Location:  54.58°N, 0.97°W
Report Text: EGNV 301150Z 18011KT 3000 BR SCT005 BKN009 13/13 Q1015
Loading
Personal Weather Stations






























Interactive Weather Map
Tropical Storm Tracking
New forecast layout! Learn more

10-Day Weather Forecast

Advertisements
Track Severe Weather on mobile